Time;durP1;ratioP1;P1;durP2;ratioP2;P2;SDS_P1;SDS_P2;PMS_P1;PMS_P2;Temp;Humidity;BMP_temperature;BMP_pressure;BME280_temperature;BME280_humidity;BME280_pressure;Samples;Min_cycle;Max_cycle;Signal;HPM_P1;HPM_P2
2022/05/11 00:00:11;;;;;;;;;;;;;;;22.65;44.49;101020.66;5000003;28;99176;-68
2022/05/11 00:02:38;;;;;;;;;;;;;;;22.42;46.35;101010.91;5004223;28;97366;-69
2022/05/11 00:05:06;;;;;;;;;;;;;;;22.76;45.57;101000.09;5005495;28;97240;-68
2022/05/11 00:07:33;;;;;;;;;;;;;;;22.49;46.82;101000.50;5005434;28;99974;-69
2022/05/11 00:09:59;;;;;;;;;;;;;;;22.51;47.04;101004.75;5010264;28;99086;-67
2022/05/11 00:12:26;;;;;;;;;;;;;;;22.83;46.72;100995.94;5000607;28;100012;-68
2022/05/11 00:14:53;;;;;;;;;;;;;;;22.73;46.79;100997.66;5000119;28;97547;-67
2022/05/11 00:17:19;;;;;;;;;;;;;;;22.60;47.34;100997.78;5002678;28;98260;-67
2022/05/11 00:19:45;;;;;;;;;;;;;;;22.06;48.71;101003.06;5001926;28;101013;-67
2022/05/11 00:22:13;;;;;;;;;;;;;;;22.52;47.57;101000.22;5005030;28;98698;-67
2022/05/11 00:24:39;;;;;;;;;;;;;;;22.66;47.32;100998.13;5004902;28;96932;-67
2022/05/11 00:27:06;;;;;;;;;;;;;;;22.62;47.57;101004.75;5004541;28;97600;-66
2022/05/11 00:29:33;;;;;;;;;;;;;;;23.13;45.88;100987.13;5001224;28;99215;-67
2022/05/11 00:31:59;;;;;;;;;;;;;;;23.34;45.48;100994.25;5002740;28;97214;-66
2022/05/11 00:34:25;;;;;;;;;;;;;;;23.64;44.50;100992.63;4999669;28;97072;-66
2022/05/11 00:36:52;;;;;;;;;;;;;;;23.72;44.45;100991.00;5003071;28;99152;-66
2022/05/11 00:39:19;;;;;;;;;;;;;;;23.13;45.79;101001.44;5000836;28;98130;-66
2022/05/11 00:41:46;;;;;;;;;;;;;;;22.78;46.54;101030.44;5001293;28;96982;-67
2022/05/11 00:44:12;;;;;;;;;;;;;;;22.51;46.65;101034.38;5000258;28;98607;-66
2022/05/11 00:46:42;;;;;;;;;;;;;;;21.78;47.74;101032.13;5004704;28;99566;-67
2022/05/11 00:51:57;;;;;;;;;;;;;;;22.48;46.41;101026.56;5003619;28;96825;-66
2022/05/11 00:54:27;;;;;;;;;;;;;;;22.09;47.03;101029.75;5006482;28;98403;-66
2022/05/11 00:56:55;;;;;;;;;;;;;;;21.87;47.86;101017.94;5002668;28;99860;-67
2022/05/11 00:59:23;;;;;;;;;;;;;;;22.04;47.29;101018.50;5006521;28;99859;-67
2022/05/11 01:01:50;;;;;;;;;;;;;;;22.22;46.72;101017.03;5003128;28;96831;-67
2022/05/11 01:04:19;;;;;;;;;;;;;;;22.10;46.35;101020.69;5010118;28;96763;-68
2022/05/11 01:06:46;;;;;;;;;;;;;;;21.95;46.75;101021.88;5001444;28;99359;-67
2022/05/11 01:09:12;;;;;;;;;;;;;;;22.42;45.56;101015.44;5007774;28;99767;-66
2022/05/11 01:11:41;;;;;;;;;;;;;;;22.00;46.14;101007.09;4997861;28;96744;-67
2022/05/11 01:14:10;;;;;;;;;;;;;;;22.93;43.90;100986.94;5005265;28;96999;-67
2022/05/11 01:16:37;;;;;;;;;;;;;;;23.04;43.64;100976.13;5001011;28;98505;-66
2022/05/11 01:19:04;;;;;;;;;;;;;;;23.26;43.00;100972.47;5004949;28;99046;-68
2022/05/11 01:21:35;;;;;;;;;;;;;;;23.03;43.65;100958.25;5000434;28;96872;-67
2022/05/11 01:24:09;;;;;;;;;;;;;;;22.93;44.11;100951.91;5000775;28;96774;-67
2022/05/11 01:26:36;;;;;;;;;;;;;;;22.94;44.16;100944.69;4998699;28;99023;-67
2022/05/11 01:29:03;;;;;;;;;;;;;;;22.87;44.40;100962.34;5004016;28;98943;-67
2022/05/11 01:31:29;;;;;;;;;;;;;;;23.19;43.53;100963.19;5001801;28;97860;-67
2022/05/11 01:33:55;;;;;;;;;;;;;;;23.21;43.45;100963.94;4999625;28;98703;-67
2022/05/11 01:36:26;;;;;;;;;;;;;;;22.92;44.19;100968.19;4998365;28;99404;-68
2022/05/11 01:38:53;;;;;;;;;;;;;;;22.80;44.80;100963.84;5002183;28;98886;-74
2022/05/11 01:41:22;;;;;;;;;;;;;;;23.26;43.58;100964.38;5002802;28;96746;-73
2022/05/11 01:43:50;;;;;;;;;;;;;;;23.17;43.99;100950.84;5003469;28;97167;-66
2022/05/11 01:46:16;;;;;;;;;;;;;;;22.90;44.78;100941.41;5007898;28;98891;-66
2022/05/11 01:48:43;;;;;;;;;;;;;;;23.22;43.85;100945.91;5002239;28;99487;-68
2022/05/11 01:51:09;;;;;;;;;;;;;;;22.61;45.22;100945.63;5006154;28;96797;-67
2022/05/11 01:53:35;;;;;;;;;;;;;;;22.38;46.20;100936.75;5006013;28;96865;-73
2022/05/11 01:56:02;;;;;;;;;;;;;;;22.08;46.88;100933.84;4996958;28;97708;-72
2022/05/11 01:58:28;;;;;;;;;;;;;;;22.30;45.91;100931.13;5000740;28;98769;-72
2022/05/11 02:00:56;;;;;;;;;;;;;;;22.60;44.99;100927.75;5001754;28;96898;-67
2022/05/11 02:03:22;;;;;;;;;;;;;;;22.87;44.46;100925.50;5000397;28;97543;-66
2022/05/11 02:08:34;;;;;;;;;;;;;;;23.27;43.42;100922.97;4996242;28;97016;-67
2022/05/11 02:11:01;;;;;;;;;;;;;;;23.40;43.07;100925.47;5003503;28;97002;-67
2022/05/11 02:13:28;;;;;;;;;;;;;;;23.56;42.72;100927.72;5002395;28;97389;-67
2022/05/11 02:15:56;;;;;;;;;;;;;;;23.64;42.48;100935.97;5000370;28;97821;-67
2022/05/11 02:18:23;;;;;;;;;;;;;;;23.76;42.29;100945.72;5002983;28;98897;-65
2022/05/11 02:20:49;;;;;;;;;;;;;;;23.00;44.09;100946.88;5008549;28;97128;-67
2022/05/11 02:23:16;;;;;;;;;;;;;;;23.41;43.36;100935.25;5007194;28;96952;-67
2022/05/11 02:25:45;;;;;;;;;;;;;;;23.41;43.28;100943.34;5000437;28;99524;-67
2022/05/11 02:28:12;;;;;;;;;;;;;;;23.43;43.72;100946.78;5001256;28;97680;-66
2022/05/11 02:30:39;;;;;;;;;;;;;;;23.28;44.23;100938.16;4998401;28;96870;-73
2022/05/11 02:33:07;;;;;;;;;;;;;;;23.81;43.08;100940.78;5000943;28;97414;-72
2022/05/11 02:35:34;;;;;;;;;;;;;;;23.66;44.00;100952.91;5000167;28;98895;-73
2022/05/11 02:38:02;;;;;;;;;;;;;;;23.49;44.31;100964.31;4995577;28;99075;-72
2022/05/11 02:40:29;;;;;;;;;;;;;;;23.35;44.47;100958.22;5010458;28;96818;-74
2022/05/11 02:42:56;;;;;;;;;;;;;;;23.18;45.62;100964.16;5002695;28;97594;-68
2022/05/11 02:45:24;;;;;;;;;;;;;;;23.27;45.25;100962.53;5005927;28;101788;-67
2022/05/11 02:47:51;;;;;;;;;;;;;;;23.19;45.30;100965.88;5000084;28;98685;-66
2022/05/11 02:50:20;;;;;;;;;;;;;;;23.53;44.46;100968.44;5005787;28;97337;-67
2022/05/11 02:52:47;;;;;;;;;;;;;;;23.60;43.69;100964.22;5002298;28;96839;-68
2022/05/11 02:55:13;;;;;;;;;;;;;;;23.74;43.63;100975.53;5000632;28;99161;-67
2022/05/11 02:57:40;;;;;;;;;;;;;;;23.27;45.10;100976.03;5002283;28;99148;-68
2022/05/11 03:00:09;;;;;;;;;;;;;;;23.27;45.11;100970.63;5008329;28;96830;-66
2022/05/11 03:02:35;;;;;;;;;;;;;;;23.22;45.73;100979.13;5002967;28;96950;-68
2022/05/11 03:05:01;;;;;;;;;;;;;;;23.01;46.40;100987.16;5003934;28;99644;-70
2022/05/11 03:07:29;;;;;;;;;;;;;;;23.29;46.34;100985.72;5008970;28;98681;-67
2022/05/11 03:09:55;;;;;;;;;;;;;;;23.21;45.90;100984.63;5004958;28;96939;-68
2022/05/11 03:12:22;;;;;;;;;;;;;;;23.34;45.31;100978.06;5006433;28;96997;-68
2022/05/11 03:14:49;;;;;;;;;;;;;;;23.17;46.74;100978.63;5002978;28;99092;-68
2022/05/11 03:17:15;;;;;;;;;;;;;;;22.84;47.94;100989.56;5007561;28;99032;-68
2022/05/11 03:19:42;;;;;;;;;;;;;;;22.93;47.67;100991.47;5001632;28;97636;-67
2022/05/11 03:22:09;;;;;;;;;;;;;;;22.90;47.39;100995.31;5002007;28;97534;-67
2022/05/11 03:24:37;;;;;;;;;;;;;;;22.95;48.33;100987.69;5002253;28;99533;-67
2022/05/11 03:27:04;;;;;;;;;;;;;;;23.03;46.54;100985.22;5005312;28;98743;-68
2022/05/11 03:29:30;;;;;;;;;;;;;;;22.91;46.68;100986.22;5004123;28;96981;-67
2022/05/11 03:34:41;;;;;;;;;;;;;;;22.98;46.62;100997.31;5001302;28;97042;-67
2022/05/11 03:37:09;;;;;;;;;;;;;;;22.96;45.26;100994.78;5004727;28;99241;-67
2022/05/11 03:39:37;;;;;;;;;;;;;;;23.37;44.50;101001.22;5009361;28;96880;-67
2022/05/11 03:42:04;;;;;;;;;;;;;;;23.23;44.71;100997.00;5007142;28;96917;-67
2022/05/11 03:44:31;;;;;;;;;;;;;;;23.02;45.15;101005.06;5001523;28;98845;-67
2022/05/11 03:46:57;;;;;;;;;;;;;;;23.05;46.05;101003.91;5002838;28;98893;-67
2022/05/11 03:49:23;;;;;;;;;;;;;;;22.98;46.37;101000.03;5006193;28;96951;-67
2022/05/11 03:51:50;;;;;;;;;;;;;;;23.11;46.18;101008.78;5000473;28;97123;-67
2022/05/11 03:54:16;;;;;;;;;;;;;;;23.07;46.65;101003.81;5003621;28;99438;-70
2022/05/11 03:56:44;;;;;;;;;;;;;;;22.91;47.52;101007.75;5002718;28;98927;-66
2022/05/11 03:59:11;;;;;;;;;;;;;;;22.93;47.51;101021.97;5004904;28;96822;-66
2022/05/11 04:01:37;;;;;;;;;;;;;;;22.98;49.14;101029.66;5006209;28;99168;-67
2022/05/11 04:04:04;;;;;;;;;;;;;;;22.94;48.12;101039.00;5006340;28;99099;-72
2022/05/11 04:06:30;;;;;;;;;;;;;;;23.28;46.50;101021.72;5004504;28;98753;-72
2022/05/11 04:08:56;;;;;;;;;;;;;;;23.24;46.56;101025.66;5002366;28;96797;-73
2022/05/11 04:11:23;;;;;;;;;;;;;;;23.08;46.64;101032.47;4997269;28;96920;-73
2022/05/11 04:13:51;;;;;;;;;;;;;;;23.31;46.02;101026.84;5001598;28;99367;-72
2022/05/11 04:16:18;;;;;;;;;;;;;;;22.84;46.44;101029.97;5002490;28;99291;-72
2022/05/11 04:18:44;;;;;;;;;;;;;;;23.29;47.99;101030.69;5002481;28;96921;-71
2022/05/11 04:21:11;;;;;;;;;;;;;;;23.32;48.57;101022.31;5000991;28;97015;-73
2022/05/11 04:23:40;;;;;;;;;;;;;;;22.77;49.09;101032.31;5005930;28;99325;-72
2022/05/11 04:26:06;;;;;;;;;;;;;;;23.15;48.16;101020.19;5005279;28;99923;-71
2022/05/11 04:28:33;;;;;;;;;;;;;;;23.00;48.50;101022.31;5005397;28;97041;-72
2022/05/11 04:31:04;;;;;;;;;;;;;;;22.45;50.05;101020.59;5004579;28;96939;-74
2022/05/11 04:33:30;;;;;;;;;;;;;;;23.10;48.21;101008.94;5004266;28;99176;-72
2022/05/11 04:35:57;;;;;;;;;;;;;;;23.00;49.12;101016.94;5002527;28;97363;-67
2022/05/11 04:38:23;;;;;;;;;;;;;;;23.05;50.79;101017.41;5008345;28;96784;-68
2022/05/11 04:40:49;;;;;;;;;;;;;;;23.05;51.88;101020.09;5004541;28;97098;-67
2022/05/11 04:43:16;;;;;;;;;;;;;;;23.16;49.61;101009.28;5007385;28;99277;-67
2022/05/11 04:45:43;;;;;;;;;;;;;;;23.00;51.21;101011.53;5000185;28;97503;-73
2022/05/11 04:48:11;;;;;;;;;;;;;;;22.86;51.57;101014.53;5000646;28;98671;-67
2022/05/11 04:50:38;;;;;;;;;;;;;;;23.05;51.27;101012.00;5001429;28;96781;-67
2022/05/11 04:53:05;;;;;;;;;;;;;;;23.26;51.01;101012.06;5005063;28;97845;-67
2022/05/11 04:55:31;;;;;;;;;;;;;;;23.24;51.09;101012.16;4995317;28;98752;-67
2022/05/11 04:57:59;;;;;;;;;;;;;;;23.19;51.69;101006.31;5002080;28;98640;-67
2022/05/11 05:00:25;;;;;;;;;;;;;;;22.75;53.78;101015.41;5001676;28;97231;-68
2022/05/11 05:02:51;;;;;;;;;;;;;;;22.59;53.62;101009.53;5003632;28;101867;-68
2022/05/11 05:05:19;;;;;;;;;;;;;;;22.77;53.51;101005.38;4997930;28;98916;-68
2022/05/11 05:07:46;;;;;;;;;;;;;;;22.86;54.08;101010.00;5005472;28;96900;-67
2022/05/11 05:10:13;;;;;;;;;;;;;;;22.80;54.05;101015.03;5004884;28;98000;-67
2022/05/11 05:12:40;;;;;;;;;;;;;;;22.83;53.68;101009.41;4995272;28;99181;-68
2022/05/11 05:15:07;;;;;;;;;;;;;;;22.64;53.55;101010.84;5001979;28;101636;-68
2022/05/11 05:17:33;;;;;;;;;;;;;;;22.69;53.03;101006.94;4998358;28;97520;-66
2022/05/11 05:19:59;;;;;;;;;;;;;;;22.81;52.65;101006.81;5003238;28;96878;-66
2022/05/11 05:22:27;;;;;;;;;;;;;;;22.76;52.79;101002.81;5006737;28;99050;-71
2022/05/11 05:24:53;;;;;;;;;;;;;;;23.06;52.02;100994.84;4997224;28;98868;-73
2022/05/11 05:27:20;;;;;;;;;;;;;;;23.20;50.96;100991.88;5001492;28;96886;-73
2022/05/11 05:32:34;;;;;;;;;;;;;;;23.14;51.87;100995.06;4995928;28;97186;-67
2022/05/11 05:35:00;;;;;;;;;;;;;;;23.29;51.30;100993.78;5003286;28;98786;-73
2022/05/11 05:37:28;;;;;;;;;;;;;;;23.13;52.68;100998.75;5005401;28;97015;-73
2022/05/11 05:39:54;;;;;;;;;;;;;;;23.30;51.79;101000.03;5003637;28;97182;-67
2022/05/11 05:42:21;;;;;;;;;;;;;;;23.58;51.21;101003.94;5004825;28;98280;-67
2022/05/11 05:44:48;;;;;;;;;;;;;;;23.29;52.50;101001.88;5008681;28;100436;-73
2022/05/11 05:47:15;;;;;;;;;;;;;;;23.31;51.72;101007.13;5002496;28;96864;-74
2022/05/11 05:49:41;;;;;;;;;;;;;;;23.70;50.60;101003.75;5007298;28;96782;-72
2022/05/11 05:52:08;;;;;;;;;;;;;;;23.91;49.66;101002.88;5006041;28;100768;-73
2022/05/11 05:54:36;;;;;;;;;;;;;;;23.73;49.80;101005.34;4998691;28;98888;-67
2022/05/11 05:57:03;;;;;;;;;;;;;;;23.74;48.36;101009.75;5001501;28;96604;-66
2022/05/11 05:59:30;;;;;;;;;;;;;;;23.85;48.55;101004.28;5007260;28;98468;-66
2022/05/11 06:01:56;;;;;;;;;;;;;;;23.87;48.23;101006.84;5003883;28;100686;-67
2022/05/11 06:04:23;;;;;;;;;;;;;;;23.66;48.07;100998.75;5004867;28;101788;-66
2022/05/11 06:06:49;;;;;;;;;;;;;;;23.69;48.84;101004.75;4998751;28;97243;-67
2022/05/11 06:09:16;;;;;;;;;;;;;;;23.80;49.24;101009.22;5006777;28;97931;-68
2022/05/11 06:11:44;;;;;;;;;;;;;;;23.97;49.01;101013.13;4995338;28;98921;-67
2022/05/11 06:14:10;;;;;;;;;;;;;;;23.77;48.34;101006.78;5005195;28;97705;-67
2022/05/11 06:16:37;;;;;;;;;;;;;;;23.83;48.94;101006.25;4998043;28;97642;-68
2022/05/11 06:19:05;;;;;;;;;;;;;;;23.97;48.69;101005.91;5011749;28;97082;-67
2022/05/11 06:21:33;;;;;;;;;;;;;;;24.05;48.99;101000.69;5003129;28;99298;-66
2022/05/11 06:23:59;;;;;;;;;;;;;;;23.73;50.19;100989.16;5002947;28;98816;-67
2022/05/11 06:26:26;;;;;;;;;;;;;;;23.80;49.92;100993.03;5002967;28;97411;-67
2022/05/11 06:28:54;;;;;;;;;;;;;;;23.71;49.74;100994.66;5002393;28;97007;-68
2022/05/11 06:31:22;;;;;;;;;;;;;;;23.86;49.01;100984.41;5001636;28;98900;-67
2022/05/11 06:33:50;;;;;;;;;;;;;;;23.69;49.79;100974.22;5007257;28;99183;-68
2022/05/11 06:36:17;;;;;;;;;;;;;;;24.05;48.35;100978.22;5006591;28;96869;-68
2022/05/11 06:38:43;;;;;;;;;;;;;;;24.39;47.62;100970.72;5007065;28;96950;-67
2022/05/11 06:41:10;;;;;;;;;;;;;;;24.53;47.79;100954.13;5006293;28;99019;-68
2022/05/11 06:43:36;;;;;;;;;;;;;;;24.40;47.00;100967.91;5001501;28;98759;-67
2022/05/11 06:46:04;;;;;;;;;;;;;;;24.63;46.55;100968.50;5003630;28;97795;-67
2022/05/11 06:48:33;;;;;;;;;;;;;;;24.84;46.21;100965.69;5004195;28;98405;-71
2022/05/11 06:50:59;;;;;;;;;;;;;;;24.59;46.18;100962.53;5008744;28;99194;-66
2022/05/11 06:53:26;;;;;;;;;;;;;;;24.78;46.22;100964.41;5002033;28;98779;-67
2022/05/11 07:01:22;;;;;;;;;;;;;;;24.55;46.28;100952.13;5003300;28;97121;-68
2022/05/11 07:03:48;;;;;;;;;;;;;;;25.02;45.73;100948.66;5007832;28;98762;-73
2022/05/11 07:06:14;;;;;;;;;;;;;;;25.32;44.77;100938.69;5005994;28;97586;-74
2022/05/11 07:08:42;;;;;;;;;;;;;;;25.22;44.01;100941.41;5003087;28;97268;-68
2022/05/11 07:13:53;;;;;;;;;;;;;;;24.27;44.53;100942.97;5004349;28;98895;-67
2022/05/11 07:16:21;;;;;;;;;;;;;;;24.35;44.83;100916.13;5003164;28;97319;-69
2022/05/11 07:18:49;;;;;;;;;;;;;;;24.01;45.25;100912.03;5007901;28;96922;-68
2022/05/11 07:21:15;;;;;;;;;;;;;;;24.03;45.41;100910.03;5005647;28;99154;-68
2022/05/11 07:23:41;;;;;;;;;;;;;;;24.31;44.52;100908.44;5005265;28;98723;-68
2022/05/11 07:26:08;;;;;;;;;;;;;;;24.47;43.32;100900.66;5002021;28;97268;-67
2022/05/11 07:28:35;;;;;;;;;;;;;;;24.67;43.07;100905.09;5002425;28;98030;-68
2022/05/11 07:31:02;;;;;;;;;;;;;;;25.12;42.91;100896.44;5006033;28;99975;-67
2022/05/11 07:33:31;;;;;;;;;;;;;;;25.63;41.78;100894.22;5007907;28;99442;-69
2022/05/11 07:35:59;;;;;;;;;;;;;;;25.71;40.84;100896.19;5003314;28;97749;-67
2022/05/11 07:38:25;;;;;;;;;;;;;;;25.11;41.79;100903.69;4998679;28;98883;-68
2022/05/11 07:40:52;;;;;;;;;;;;;;;25.21;41.48;100887.44;5002852;28;98933;-68
2022/05/11 07:43:20;;;;;;;;;;;;;;;25.49;40.23;100897.34;5003907;28;101238;-68
2022/05/11 07:45:46;;;;;;;;;;;;;;;25.64;39.75;100895.94;5002986;28;96806;-68
2022/05/11 07:48:13;;;;;;;;;;;;;;;25.67;39.76;100889.34;5000932;28;97258;-68
2022/05/11 07:50:39;;;;;;;;;;;;;;;24.81;40.84;100884.91;5003986;28;99592;-67
2022/05/11 07:53:07;;;;;;;;;;;;;;;24.28;41.04;100879.91;5004252;28;97764;-68
2022/05/11 07:55:36;;;;;;;;;;;;;;;24.30;41.31;100883.28;5007839;28;96941;-68
2022/05/11 08:00:48;;;;;;;;;;;;;;;24.57;40.23;100877.22;5006253;28;97251;-67
2022/05/11 08:03:14;;;;;;;;;;;;;;;25.33;39.20;100879.06;4995808;28;99529;-65
2022/05/11 08:05:41;;;;;;;;;;;;;;;25.63;38.86;100869.88;5007316;28;97344;-67
2022/05/11 08:08:09;;;;;;;;;;;;;;;25.68;38.46;100875.69;5001098;28;97540;-67
2022/05/11 08:10:36;;;;;;;;;;;;;;;25.69;38.02;100866.56;5005323;28;98275;-68
2022/05/11 08:13:05;;;;;;;;;;;;;;;25.94;37.40;100867.72;5004355;28;97705;-68
2022/05/11 08:15:32;;;;;;;;;;;;;;;25.39;38.05;100864.94;5000797;28;97467;-67
2022/05/11 08:18:00;;;;;;;;;;;;;;;25.59;38.13;100862.19;5001963;28;97664;-67
2022/05/11 08:20:28;;;;;;;;;;;;;;;24.92;39.18;100858.63;5003671;28;98833;-68
2022/05/11 08:22:55;;;;;;;;;;;;;;;25.24;39.09;100854.72;5004527;28;98064;-68
2022/05/11 08:25:25;;;;;;;;;;;;;;;25.99;38.16;100849.16;5003301;28;97103;-68
2022/05/11 08:27:52;;;;;;;;;;;;;;;26.08;37.57;100844.72;5003099;28;97870;-67
2022/05/11 08:35:51;;;;;;;;;;;;;;;25.94;37.56;100854.19;4999353;28;97234;-68
2022/05/11 08:38:18;;;;;;;;;;;;;;;26.06;37.36;100835.88;5002501;28;96950;-68
2022/05/11 08:40:49;;;;;;;;;;;;;;;26.22;37.16;100833.38;5001711;28;97778;-67
2022/05/11 08:43:17;;;;;;;;;;;;;;;26.01;38.15;100835.47;5006164;28;99143;-67
2022/05/11 08:45:45;;;;;;;;;;;;;;;25.47;38.17;100841.72;5005110;28;96788;-68
2022/05/11 08:48:17;;;;;;;;;;;;;;;26.12;37.40;100817.16;5004544;28;98485;-68
2022/05/11 08:50:46;;;;;;;;;;;;;;;26.22;37.01;100819.81;5001996;28;98903;-68
2022/05/11 08:53:18;;;;;;;;;;;;;;;26.91;35.95;100824.59;4998015;28;99357;-68
2022/05/11 08:55:46;;;;;;;;;;;;;;;26.52;36.67;100813.19;5000409;28;96837;-67
2022/05/11 08:58:21;;;;;;;;;;;;;;;26.68;36.05;100818.78;4997170;28;96842;-68
2022/05/11 09:00:47;;;;;;;;;;;;;;;26.86;36.01;100813.31;5002433;28;101742;-70
2022/05/11 09:03:18;;;;;;;;;;;;;;;26.62;35.99;100816.69;4996665;28;97811;-68
2022/05/11 09:05:45;;;;;;;;;;;;;;;26.83;35.73;100813.66;5003747;28;97065;-75
2022/05/11 09:08:12;;;;;;;;;;;;;;;26.82;35.61;100814.66;4999398;28;97368;-74
2022/05/11 09:10:39;;;;;;;;;;;;;;;27.12;35.65;100808.78;5006443;28;97750;-73
2022/05/11 09:13:06;;;;;;;;;;;;;;;27.04;35.72;100805.19;5003572;28;102358;-73
2022/05/11 09:16:03;;;;;;;;;;;;;;;27.10;35.81;100801.84;5000282;28;97140;-75
2022/05/11 09:18:39;;;;;;;;;;;;;;;27.28;35.59;100800.78;4962955;28;97484;-74
2022/05/11 09:21:19;;;;;;;;;;;;;;;26.73;36.35;100802.03;4995125;28;97320;-75
2022/05/11 09:23:50;;;;;;;;;;;;;;;27.28;35.00;100795.34;5005239;28;100794;-75
2022/05/11 09:26:28;;;;;;;;;;;;;;;26.86;35.16;100789.78;5006096;28;96885;-74
2022/05/11 09:28:55;;;;;;;;;;;;;;;27.16;35.03;100779.50;5000579;28;97493;-74
2022/05/11 09:31:25;;;;;;;;;;;;;;;26.98;35.39;100774.13;5001027;28;97506;-75
2022/05/11 09:33:58;;;;;;;;;;;;;;;26.87;35.52;100783.34;4999535;28;98680;-74
2022/05/11 09:36:34;;;;;;;;;;;;;;;27.12;35.10;100772.69;4997179;28;97290;-75
2022/05/11 09:39:04;;;;;;;;;;;;;;;27.38;34.04;100766.22;5002663;28;97613;-74
2022/05/11 09:41:33;;;;;;;;;;;;;;;27.63;33.72;100758.25;5003068;28;100189;-74
2022/05/11 09:44:00;;;;;;;;;;;;;;;27.14;34.64;100760.69;5006307;28;102556;-75
2022/05/11 09:46:29;;;;;;;;;;;;;;;28.23;33.12;100756.19;5004327;28;96757;-75
2022/05/11 09:49:02;;;;;;;;;;;;;;;28.38;32.31;100748.22;5003800;28;97157;-74
2022/05/11 09:51:36;;;;;;;;;;;;;;;28.92;32.27;100750.25;4998592;28;100572;-75
2022/05/11 09:54:16;;;;;;;;;;;;;;;29.51;31.55;100741.78;5008599;28;98030;-75
2022/05/11 09:56:49;;;;;;;;;;;;;;;29.80;31.38;100736.50;5007850;28;96794;-76
2022/05/11 09:59:21;;;;;;;;;;;;;;;28.13;32.88;100734.59;5010267;28;96847;-72
2022/05/11 10:01:48;;;;;;;;;;;;;;;28.18;33.25;100725.13;5005233;28;98796;-74
2022/05/11 10:04:17;;;;;;;;;;;;;;;28.18;33.26;100723.25;5002150;28;99015;-76
2022/05/11 10:06:47;;;;;;;;;;;;;;;28.82;32.81;100722.38;5007399;28;97788;-73
2022/05/11 10:09:15;;;;;;;;;;;;;;;29.05;32.07;100719.81;5006091;28;97528;-74
2022/05/11 10:11:44;;;;;;;;;;;;;;;28.54;32.63;100707.47;5002946;28;97698;-75
2022/05/11 10:22:35;;;;;;;;;;;;;;;28.34;32.67;100684.38;5004648;28;97175;-74
2022/05/11 10:25:07;;;;;;;;;;;;;;;28.90;31.61;100683.44;5001766;28;100962;-72
2022/05/11 10:27:38;;;;;;;;;;;;;;;29.54;31.32;100676.06;5003003;28;97218;-75
2022/05/11 10:30:08;;;;;;;;;;;;;;;29.24;31.35;100675.00;5005650;28;98461;-75
2022/05/11 10:32:40;;;;;;;;;;;;;;;28.68;31.43;100668.72;5007303;28;98960;-74
2022/05/11 10:35:11;;;;;;;;;;;;;;;29.31;30.79;100665.13;5006276;28;98700;-76
2022/05/11 10:37:39;;;;;;;;;;;;;;;29.73;30.36;100654.69;5002655;28;97193;-75
2022/05/11 10:40:11;;;;;;;;;;;;;;;29.85;30.01;100662.44;5004597;28;97093;-73
2022/05/11 10:42:41;;;;;;;;;;;;;;;29.68;30.10;100654.38;5004178;28;97725;-76
2022/05/11 10:45:14;;;;;;;;;;;;;;;28.96;30.72;100654.72;5000853;28;99689;-74
2022/05/11 10:47:52;;;;;;;;;;;;;;;29.65;29.80;100643.88;5004024;28;96850;-75
2022/05/11 10:50:22;;;;;;;;;;;;;;;30.06;29.40;100641.69;5005752;28;96846;-75
2022/05/11 10:52:57;;;;;;;;;;;;;;;29.97;29.39;100644.69;5004090;28;99775;-74
2022/05/11 10:55:27;;;;;;;;;;;;;;;29.91;29.23;100635.34;5003046;28;98801;-75
2022/05/11 10:58:05;;;;;;;;;;;;;;;29.39;30.17;100635.19;5005649;28;97097;-74
2022/05/11 11:00:35;;;;;;;;;;;;;;;29.43;30.26;100625.63;5009809;28;96649;-74
2022/05/11 11:03:20;;;;;;;;;;;;;;;29.39;29.43;100626.16;5004589;28;97775;-74
2022/05/11 11:08:37;;;;;;;;;;;;;;;29.69;29.12;100623.41;4996750;28;98374;-73
2022/05/11 11:11:07;;;;;;;;;;;;;;;30.34;28.45;100617.44;4999813;28;98415;-74
2022/05/11 11:13:39;;;;;;;;;;;;;;;30.26;28.06;100609.31;5009742;28;99206;-72
2022/05/11 11:16:06;;;;;;;;;;;;;;;30.53;27.74;100604.31;5002787;28;99736;-73
2022/05/11 11:18:35;;;;;;;;;;;;;;;30.64;27.81;100598.44;5010753;28;96947;-74
2022/05/11 11:21:03;;;;;;;;;;;;;;;30.36;27.61;100596.28;5011303;28;97750;-74
2022/05/11 11:23:31;;;;;;;;;;;;;;;29.98;27.93;100597.34;5006429;28;97934;-73
2022/05/11 11:25:58;;;;;;;;;;;;;;;29.90;28.14;100594.66;5000399;28;99272;-74
2022/05/11 11:28:25;;;;;;;;;;;;;;;30.19;27.31;100586.59;5009179;28;96860;-75
2022/05/11 11:31:09;;;;;;;;;;;;;;;30.03;27.68;100578.56;5003436;28;96880;-74
2022/05/11 11:33:39;;;;;;;;;;;;;;;30.58;27.16;100582.81;4998417;28;98802;-74
2022/05/11 11:36:26;;;;;;;;;;;;;;;30.01;26.80;100591.50;5002838;28;100161;-76
2022/05/11 11:38:53;;;;;;;;;;;;;;;30.48;25.97;100578.44;5008249;28;97314;-74
2022/05/11 11:41:21;;;;;;;;;;;;;;;30.13;26.01;100562.78;5007287;28;97297;-74
2022/05/11 11:43:52;;;;;;;;;;;;;;;30.50;26.29;100578.28;5004922;28;98716;-75
2022/05/11 11:46:29;;;;;;;;;;;;;;;30.43;25.39;100564.53;5008529;28;98783;-74
2022/05/11 11:49:03;;;;;;;;;;;;;;;29.65;26.60;100564.91;5002043;28;97340;-74
2022/05/11 11:51:33;;;;;;;;;;;;;;;29.71;26.50;100574.22;5009014;28;97461;-74
2022/05/11 11:53:59;;;;;;;;;;;;;;;30.35;25.37;100566.50;5002076;28;98974;-67
2022/05/11 11:56:54;;;;;;;;;;;;;;;30.47;25.62;100560.38;4999583;28;98857;-68
2022/05/11 11:59:41;;;;;;;;;;;;;;;31.00;24.40;100552.94;5000703;28;97880;-69
2022/05/11 12:02:23;;;;;;;;;;;;;;;30.18;24.67;100533.13;5005758;28;96933;-73
2022/05/11 12:05:04;;;;;;;;;;;;;;;30.36;24.87;100538.22;4995881;28;98961;-73
2022/05/11 12:15:59;;;;;;;;;;;;;;;30.39;23.99;100525.03;4997876;28;97379;-73
2022/05/11 12:18:28;;;;;;;;;;;;;;;30.99;23.46;100526.69;5003178;28;98055;-76
2022/05/11 12:20:55;;;;;;;;;;;;;;;30.45;24.47;100532.50;5003013;28;96958;-75
2022/05/11 12:23:24;;;;;;;;;;;;;;;30.67;24.73;100522.53;5004354;28;96799;-75
2022/05/11 12:25:51;;;;;;;;;;;;;;;30.96;24.36;100535.28;5006478;28;99326;-75
2022/05/11 12:28:25;;;;;;;;;;;;;;;30.82;24.62;100522.50;5004952;28;98809;-74
2022/05/11 12:30:51;;;;;;;;;;;;;;;30.58;24.83;100526.41;5002448;28;96906;-75
2022/05/11 12:33:21;;;;;;;;;;;;;;;31.72;23.43;100533.81;5008324;28;97169;-74
2022/05/11 12:35:49;;;;;;;;;;;;;;;31.60;22.94;100519.00;5005730;28;98651;-74
2022/05/11 12:38:25;;;;;;;;;;;;;;;31.49;22.99;100523.09;5003232;28;98781;-74
2022/05/11 12:40:54;;;;;;;;;;;;;;;30.91;23.90;100512.34;5006480;28;96747;-75
2022/05/11 12:43:23;;;;;;;;;;;;;;;31.38;23.17;100523.59;5001281;28;97215;-74
2022/05/11 12:45:51;;;;;;;;;;;;;;;31.15;23.10;100507.41;5007324;28;99246;-74
2022/05/11 12:48:18;;;;;;;;;;;;;;;31.01;23.65;100508.25;5005069;28;98230;-75
2022/05/11 12:50:49;;;;;;;;;;;;;;;30.93;23.68;100500.19;5009032;28;96803;-75
2022/05/11 12:53:26;;;;;;;;;;;;;;;31.59;23.35;100504.50;5005081;28;96979;-75
2022/05/11 12:55:55;;;;;;;;;;;;;;;31.41;23.75;100487.72;5007494;28;97355;-76
2022/05/11 12:58:23;;;;;;;;;;;;;;;31.63;23.29;100488.59;5006751;28;98786;-74
2022/05/11 13:00:55;;;;;;;;;;;;;;;31.82;22.51;100484.31;5006579;28;96712;-74
2022/05/11 13:03:22;;;;;;;;;;;;;;;31.93;22.90;100495.53;5000575;28;96941;-74
2022/05/11 13:05:49;;;;;;;;;;;;;;;32.67;22.52;100479.44;5001785;28;97595;-73
2022/05/11 13:08:16;;;;;;;;;;;;;;;32.72;22.05;100487.84;5007702;28;98516;-74
2022/05/11 13:10:43;;;;;;;;;;;;;;;32.71;21.65;100486.16;5009239;28;96939;-74
2022/05/11 13:13:16;;;;;;;;;;;;;;;33.09;21.68;100482.91;5007643;28;96874;-74
2022/05/11 13:15:43;;;;;;;;;;;;;;;32.69;22.11;100476.50;4996240;28;99708;-73
2022/05/11 13:18:12;;;;;;;;;;;;;;;33.15;21.66;100469.22;4999681;28;100140;-73
2022/05/11 13:20:39;;;;;;;;;;;;;;;33.53;21.23;100487.88;5000416;28;96865;-73
2022/05/11 13:23:09;;;;;;;;;;;;;;;33.37;21.21;100480.91;5006195;28;97604;-75
2022/05/11 13:25:44;;;;;;;;;;;;;;;34.42;19.80;100488.22;5001091;28;98335;-73
2022/05/11 13:28:12;;;;;;;;;;;;;;;34.59;19.77;100488.63;5006838;28;99154;-75